sensor_id;sensor_type;location;lat;lon;timestamp;temperature;humidity
64843;DHT22;51310;52.198;5.422;2023-02-18T00:00:20;9.20;99.90
64843;DHT22;51310;52.198;5.422;2023-02-18T00:02:48;9.20;99.90
64843;DHT22;51310;52.198;5.422;2023-02-18T00:05:15;9.20;99.90
64843;DHT22;51310;52.198;5.422;2023-02-18T00:07:41;9.20;99.90
64843;DHT22;51310;52.198;5.422;2023-02-18T00:10:14;9.20;99.90
64843;DHT22;51310;52.198;5.422;2023-02-18T00:12:40;9.20;99.90
64843;DHT22;51310;52.198;5.422;2023-02-18T00:15:07;9.20;99.90
64843;DHT22;51310;52.198;5.422;2023-02-18T00:17:34;9.20;99.90
64843;DHT22;51310;52.198;5.422;2023-02-18T00:19:59;9.20;99.90
64843;DHT22;51310;52.198;5.422;2023-02-18T00:22:25;9.20;99.90
64843;DHT22;51310;52.198;5.422;2023-02-18T00:24:51;9.20;99.90
64843;DHT22;51310;52.198;5.422;2023-02-18T00:27:17;9.20;99.90
64843;DHT22;51310;52.198;5.422;2023-02-18T00:29:43;9.20;99.90
64843;DHT22;51310;52.198;5.422;2023-02-18T00:32:09;9.20;99.90
64843;DHT22;51310;52.198;5.422;2023-02-18T00:34:34;9.30;99.90
64843;DHT22;51310;52.198;5.422;2023-02-18T00:37:00;9.20;99.90
64843;DHT22;51310;52.198;5.422;2023-02-18T00:39:26;9.20;99.90
64843;DHT22;51310;52.198;5.422;2023-02-18T00:41:51;9.30;99.90
64843;DHT22;51310;52.198;5.422;2023-02-18T00:44:18;9.30;99.90
64843;DHT22;51310;52.198;5.422;2023-02-18T00:46:43;9.30;99.90
64843;DHT22;51310;52.198;5.422;2023-02-18T00:49:12;9.30;99.90
64843;DHT22;51310;52.198;5.422;2023-02-18T00:51:38;9.30;99.90
64843;DHT22;51310;52.198;5.422;2023-02-18T00:54:04;9.20;99.90
64843;DHT22;51310;52.198;5.422;2023-02-18T00:56:30;9.30;99.90
64843;DHT22;51310;52.198;5.422;2023-02-18T00:58:56;9.20;99.90
64843;DHT22;51310;52.198;5.422;2023-02-18T01:01:21;9.30;99.90
64843;DHT22;51310;52.198;5.422;2023-02-18T01:03:49;9.20;99.90
64843;DHT22;51310;52.198;5.422;2023-02-18T01:06:14;9.20;99.90
64843;DHT22;51310;52.198;5.422;2023-02-18T01:08:41;9.20;99.90
64843;DHT22;51310;52.198;5.422;2023-02-18T01:11:08;9.20;99.90
64843;DHT22;51310;52.198;5.422;2023-02-18T01:13:35;9.20;99.90
64843;DHT22;51310;52.198;5.422;2023-02-18T01:16:02;9.20;99.90
64843;DHT22;51310;52.198;5.422;2023-02-18T01:18:27;9.20;99.90
64843;DHT22;51310;52.198;5.422;2023-02-18T01:20:53;9.20;99.90
64843;DHT22;51310;52.198;5.422;2023-02-18T01:23:19;9.20;99.90
64843;DHT22;51310;52.198;5.422;2023-02-18T01:25:45;9.10;99.90
64843;DHT22;51310;52.198;5.422;2023-02-18T01:28:13;9.10;99.90
64843;DHT22;51310;52.198;5.422;2023-02-18T01:30:39;9.00;99.90
64843;DHT22;51310;52.198;5.422;2023-02-18T01:33:05;9.00;99.90
64843;DHT22;51310;52.198;5.422;2023-02-18T01:35:31;9.00;99.90
64843;DHT22;51310;52.198;5.422;2023-02-18T01:37:56;9.00;99.90
64843;DHT22;51310;52.198;5.422;2023-02-18T01:40:27;8.90;99.90
64843;DHT22;51310;52.198;5.422;2023-02-18T01:42:54;8.90;99.90
64843;DHT22;51310;52.198;5.422;2023-02-18T01:45:55;8.90;99.90
64843;DHT22;51310;52.198;5.422;2023-02-18T01:53:51;8.80;99.90
64843;DHT22;51310;52.198;5.422;2023-02-18T01:56:41;8.80;99.90
64843;DHT22;51310;52.198;5.422;2023-02-18T01:59:16;8.70;99.90
64843;DHT22;51310;52.198;5.422;2023-02-18T02:01:47;8.70;99.90
64843;DHT22;51310;52.198;5.422;2023-02-18T02:04:14;8.60;99.90
64843;DHT22;51310;52.198;5.422;2023-02-18T02:06:40;8.60;99.90
64843;DHT22;51310;52.198;5.422;2023-02-18T02:09:09;8.60;99.90
64843;DHT22;51310;52.198;5.422;2023-02-18T02:18:12;8.60;99.90
64843;DHT22;51310;52.198;5.422;2023-02-18T02:27:17;8.60;99.90
64843;DHT22;51310;52.198;5.422;2023-02-18T02:29:55;8.50;99.90
64843;DHT22;51310;52.198;5.422;2023-02-18T02:41:42;8.50;99.90
64843;DHT22;51310;52.198;5.422;2023-02-18T02:47:40;8.50;99.90
64843;DHT22;51310;52.198;5.422;2023-02-18T02:50:37;8.50;99.90
64843;DHT22;51310;52.198;5.422;2023-02-18T02:53:20;8.50;99.90
64843;DHT22;51310;52.198;5.422;2023-02-18T02:55:50;8.50;99.90
64843;DHT22;51310;52.198;5.422;2023-02-18T02:58:17;8.50;99.90
64843;DHT22;51310;52.198;5.422;2023-02-18T03:01:18;8.60;99.90
64843;DHT22;51310;52.198;5.422;2023-02-18T03:10:45;8.60;99.90
64843;DHT22;51310;52.198;5.422;2023-02-18T03:13:44;8.60;99.90
64843;DHT22;51310;52.198;5.422;2023-02-18T03:17:10;8.60;99.90
64843;DHT22;51310;52.198;5.422;2023-02-18T03:19:35;8.60;99.90
64843;DHT22;51310;52.198;5.422;2023-02-18T03:22:16;8.60;99.90
64843;DHT22;51310;52.198;5.422;2023-02-18T03:24:46;8.60;99.90
64843;DHT22;51310;52.198;5.422;2023-02-18T03:27:34;8.70;99.90
64843;DHT22;51310;52.198;5.422;2023-02-18T03:30:11;8.70;99.90
64843;DHT22;51310;52.198;5.422;2023-02-18T03:32:42;8.70;99.90
64843;DHT22;51310;52.198;5.422;2023-02-18T03:35:14;8.80;99.90
64843;DHT22;51310;52.198;5.422;2023-02-18T03:37:49;8.80;99.90
64843;DHT22;51310;52.198;5.422;2023-02-18T03:40:17;8.80;99.90
64843;DHT22;51310;52.198;5.422;2023-02-18T03:42:44;8.80;99.90
64843;DHT22;51310;52.198;5.422;2023-02-18T03:45:10;8.90;99.90
64843;DHT22;51310;52.198;5.422;2023-02-18T03:47:36;8.90;99.90
64843;DHT22;51310;52.198;5.422;2023-02-18T03:50:02;9.00;99.90
64843;DHT22;51310;52.198;5.422;2023-02-18T03:52:28;9.00;99.90
64843;DHT22;51310;52.198;5.422;2023-02-18T03:54:54;9.00;99.90
64843;DHT22;51310;52.198;5.422;2023-02-18T03:57:19;9.00;99.90
64843;DHT22;51310;52.198;5.422;2023-02-18T03:59:45;9.00;99.90
64843;DHT22;51310;52.198;5.422;2023-02-18T04:02:11;9.00;99.90
64843;DHT22;51310;52.198;5.422;2023-02-18T04:04:36;9.00;99.90
64843;DHT22;51310;52.198;5.422;2023-02-18T04:07:02;9.00;99.90
64843;DHT22;51310;52.198;5.422;2023-02-18T04:09:28;9.00;99.90
64843;DHT22;51310;52.198;5.422;2023-02-18T04:11:53;9.00;99.90
64843;DHT22;51310;52.198;5.422;2023-02-18T04:14:19;9.00;99.90
64843;DHT22;51310;52.198;5.422;2023-02-18T04:16:45;9.00;99.90
64843;DHT22;51310;52.198;5.422;2023-02-18T04:19:10;9.00;99.90
64843;DHT22;51310;52.198;5.422;2023-02-18T04:21:36;9.00;99.90
64843;DHT22;51310;52.198;5.422;2023-02-18T04:24:02;9.00;99.90
64843;DHT22;51310;52.198;5.422;2023-02-18T04:26:28;9.00;99.90
64843;DHT22;51310;52.198;5.422;2023-02-18T04:28:54;9.00;99.90
64843;DHT22;51310;52.198;5.422;2023-02-18T04:31:19;9.00;99.90
64843;DHT22;51310;52.198;5.422;2023-02-18T04:33:45;9.00;99.90
64843;DHT22;51310;52.198;5.422;2023-02-18T04:36:11;9.00;99.90
64843;DHT22;51310;52.198;5.422;2023-02-18T04:38:36;9.10;99.90
64843;DHT22;51310;52.198;5.422;2023-02-18T04:41:02;9.10;99.90
64843;DHT22;51310;52.198;5.422;2023-02-18T04:43:28;9.20;99.90
64843;DHT22;51310;52.198;5.422;2023-02-18T04:45:54;9.20;99.90
64843;DHT22;51310;52.198;5.422;2023-02-18T04:48:19;9.20;99.90
64843;DHT22;51310;52.198;5.422;2023-02-18T04:50:45;9.20;99.90
64843;DHT22;51310;52.198;5.422;2023-02-18T04:53:11;9.20;99.90
64843;DHT22;51310;52.198;5.422;2023-02-18T04:55:37;9.20;99.90
64843;DHT22;51310;52.198;5.422;2023-02-18T04:58:03;9.20;99.90
64843;DHT22;51310;52.198;5.422;2023-02-18T05:00:28;9.20;99.90
64843;DHT22;51310;52.198;5.422;2023-02-18T05:02:54;9.20;99.90
64843;DHT22;51310;52.198;5.422;2023-02-18T05:05:20;9.20;99.90
64843;DHT22;51310;52.198;5.422;2023-02-18T05:07:46;9.20;99.90
64843;DHT22;51310;52.198;5.422;2023-02-18T05:10:15;9.20;99.90
64843;DHT22;51310;52.198;5.422;2023-02-18T05:12:42;9.20;99.90
64843;DHT22;51310;52.198;5.422;2023-02-18T05:15:09;9.10;99.90
64843;DHT22;51310;52.198;5.422;2023-02-18T05:17:35;9.10;99.90
64843;DHT22;51310;52.198;5.422;2023-02-18T05:20:00;9.10;99.90
64843;DHT22;51310;52.198;5.422;2023-02-18T05:22:27;9.10;99.90
64843;DHT22;51310;52.198;5.422;2023-02-18T05:24:52;9.10;99.90
64843;DHT22;51310;52.198;5.422;2023-02-18T05:27:18;9.10;99.90
64843;DHT22;51310;52.198;5.422;2023-02-18T05:29:44;9.10;99.90
64843;DHT22;51310;52.198;5.422;2023-02-18T05:32:09;9.10;99.90
64843;DHT22;51310;52.198;5.422;2023-02-18T05:34:35;9.10;99.90
64843;DHT22;51310;52.198;5.422;2023-02-18T05:37:01;9.10;99.90
64843;DHT22;51310;52.198;5.422;2023-02-18T05:39:26;9.00;99.90
64843;DHT22;51310;52.198;5.422;2023-02-18T05:41:52;9.10;99.90
64843;DHT22;51310;52.198;5.422;2023-02-18T05:44:18;9.10;99.90
64843;DHT22;51310;52.198;5.422;2023-02-18T05:47:04;9.10;99.90
64843;DHT22;51310;52.198;5.422;2023-02-18T05:49:33;9.20;99.90
64843;DHT22;51310;52.198;5.422;2023-02-18T05:52:00;9.10;99.90
64843;DHT22;51310;52.198;5.422;2023-02-18T05:54:27;9.20;99.90
64843;DHT22;51310;52.198;5.422;2023-02-18T05:56:53;9.20;99.90
64843;DHT22;51310;52.198;5.422;2023-02-18T05:59:19;9.20;99.90
64843;DHT22;51310;52.198;5.422;2023-02-18T06:01:46;9.20;99.90
64843;DHT22;51310;52.198;5.422;2023-02-18T06:04:13;9.20;99.90
64843;DHT22;51310;52.198;5.422;2023-02-18T06:06:40;9.20;99.90
64843;DHT22;51310;52.198;5.422;2023-02-18T06:09:07;9.30;99.90
64843;DHT22;51310;52.198;5.422;2023-02-18T06:11:33;9.30;99.90
64843;DHT22;51310;52.198;5.422;2023-02-18T06:13:59;9.40;99.90
64843;DHT22;51310;52.198;5.422;2023-02-18T06:16:25;9.40;99.90
64843;DHT22;51310;52.198;5.422;2023-02-18T06:18:51;9.40;99.90
64843;DHT22;51310;52.198;5.422;2023-02-18T06:21:17;9.40;99.90
64843;DHT22;51310;52.198;5.422;2023-02-18T06:23:43;9.40;99.90
64843;DHT22;51310;52.198;5.422;2023-02-18T06:26:09;9.40;99.90
64843;DHT22;51310;52.198;5.422;2023-02-18T06:28:35;9.40;99.90
64843;DHT22;51310;52.198;5.422;2023-02-18T06:31:00;9.40;99.90
64843;DHT22;51310;52.198;5.422;2023-02-18T06:33:26;9.40;99.90
64843;DHT22;51310;52.198;5.422;2023-02-18T06:36:01;9.40;99.90
64843;DHT22;51310;52.198;5.422;2023-02-18T06:38:32;9.40;99.90
64843;DHT22;51310;52.198;5.422;2023-02-18T06:40:59;9.40;99.90
64843;DHT22;51310;52.198;5.422;2023-02-18T06:43:25;9.50;99.90
64843;DHT22;51310;52.198;5.422;2023-02-18T06:45:51;9.50;99.90
64843;DHT22;51310;52.198;5.422;2023-02-18T06:48:17;9.50;99.90
64843;DHT22;51310;52.198;5.422;2023-02-18T06:50:43;9.50;99.90
64843;DHT22;51310;52.198;5.422;2023-02-18T06:53:10;9.50;99.90
64843;DHT22;51310;52.198;5.422;2023-02-18T06:55:37;9.50;99.90
64843;DHT22;51310;52.198;5.422;2023-02-18T06:58:03;9.50;99.90
64843;DHT22;51310;52.198;5.422;2023-02-18T07:00:29;9.50;99.90
64843;DHT22;51310;52.198;5.422;2023-02-18T07:02:55;9.50;99.90
64843;DHT22;51310;52.198;5.422;2023-02-18T07:05:20;9.50;99.90
64843;DHT22;51310;52.198;5.422;2023-02-18T07:07:46;9.50;99.90
64843;DHT22;51310;52.198;5.422;2023-02-18T07:10:12;9.40;99.90
64843;DHT22;51310;52.198;5.422;2023-02-18T07:12:38;9.40;99.90
64843;DHT22;51310;52.198;5.422;2023-02-18T07:15:03;9.40;99.90
64843;DHT22;51310;52.198;5.422;2023-02-18T07:17:29;9.40;99.90
64843;DHT22;51310;52.198;5.422;2023-02-18T07:19:55;9.40;99.90
64843;DHT22;51310;52.198;5.422;2023-02-18T07:22:21;9.40;99.90
64843;DHT22;51310;52.198;5.422;2023-02-18T07:24:51;9.40;99.90
64843;DHT22;51310;52.198;5.422;2023-02-18T07:27:18;9.40;99.90
64843;DHT22;51310;52.198;5.422;2023-02-18T07:29:45;9.40;99.90
64843;DHT22;51310;52.198;5.422;2023-02-18T07:32:12;9.40;99.90
64843;DHT22;51310;52.198;5.422;2023-02-18T07:34:39;9.40;99.90
64843;DHT22;51310;52.198;5.422;2023-02-18T07:37:05;9.40;99.90
64843;DHT22;51310;52.198;5.422;2023-02-18T07:39:39;9.40;99.90
64843;DHT22;51310;52.198;5.422;2023-02-18T07:42:06;9.40;99.90
64843;DHT22;51310;52.198;5.422;2023-02-18T07:44:32;9.40;99.90
64843;DHT22;51310;52.198;5.422;2023-02-18T07:46:58;9.40;99.90
64843;DHT22;51310;52.198;5.422;2023-02-18T07:49:24;9.40;99.90
64843;DHT22;51310;52.198;5.422;2023-02-18T07:51:50;9.40;99.90
64843;DHT22;51310;52.198;5.422;2023-02-18T07:54:16;9.40;99.90
64843;DHT22;51310;52.198;5.422;2023-02-18T07:56:42;9.40;99.90
64843;DHT22;51310;52.198;5.422;2023-02-18T07:59:09;9.40;99.90
64843;DHT22;51310;52.198;5.422;2023-02-18T08:01:36;9.40;99.90
64843;DHT22;51310;52.198;5.422;2023-02-18T08:04:02;9.40;99.90
64843;DHT22;51310;52.198;5.422;2023-02-18T08:06:43;9.40;99.90
64843;DHT22;51310;52.198;5.422;2023-02-18T08:09:12;9.30;99.90
64843;DHT22;51310;52.198;5.422;2023-02-18T08:11:38;9.30;99.90
64843;DHT22;51310;52.198;5.422;2023-02-18T08:14:04;9.20;99.90
64843;DHT22;51310;52.198;5.422;2023-02-18T08:16:30;9.20;99.90
64843;DHT22;51310;52.198;5.422;2023-02-18T08:18:57;9.20;99.90
64843;DHT22;51310;52.198;5.422;2023-02-18T08:21:24;9.20;99.90
64843;DHT22;51310;52.198;5.422;2023-02-18T08:23:51;9.20;99.90
64843;DHT22;51310;52.198;5.422;2023-02-18T08:26:17;9.20;99.90
64843;DHT22;51310;52.198;5.422;2023-02-18T08:28:44;9.20;99.90
64843;DHT22;51310;52.198;5.422;2023-02-18T08:31:23;9.20;99.90
64843;DHT22;51310;52.198;5.422;2023-02-18T08:33:52;9.20;99.90
64843;DHT22;51310;52.198;5.422;2023-02-18T08:36:19;9.10;99.90
64843;DHT22;51310;52.198;5.422;2023-02-18T08:38:46;9.00;99.90
64843;DHT22;51310;52.198;5.422;2023-02-18T08:41:12;9.00;99.90
64843;DHT22;51310;52.198;5.422;2023-02-18T08:43:43;9.00;99.90
64843;DHT22;51310;52.198;5.422;2023-02-18T08:46:10;8.90;99.90
64843;DHT22;51310;52.198;5.422;2023-02-18T08:48:36;8.90;99.90
64843;DHT22;51310;52.198;5.422;2023-02-18T08:51:16;8.90;99.90
64843;DHT22;51310;52.198;5.422;2023-02-18T08:53:44;8.90;99.90
64843;DHT22;51310;52.198;5.422;2023-02-18T08:56:12;8.90;99.90
64843;DHT22;51310;52.198;5.422;2023-02-18T08:58:40;9.00;99.90
64843;DHT22;51310;52.198;5.422;2023-02-18T09:01:11;9.00;99.90
64843;DHT22;51310;52.198;5.422;2023-02-18T09:03:38;9.00;99.90
64843;DHT22;51310;52.198;5.422;2023-02-18T09:06:04;9.00;99.90
64843;DHT22;51310;52.198;5.422;2023-02-18T09:08:30;9.00;99.90
64843;DHT22;51310;52.198;5.422;2023-02-18T09:10:58;9.00;99.90
64843;DHT22;51310;52.198;5.422;2023-02-18T09:13:26;9.00;99.90
64843;DHT22;51310;52.198;5.422;2023-02-18T09:18:26;9.00;99.90
64843;DHT22;51310;52.198;5.422;2023-02-18T09:20:55;9.00;99.90
64843;DHT22;51310;52.198;5.422;2023-02-18T09:23:23;9.00;99.90
64843;DHT22;51310;52.198;5.422;2023-02-18T09:25:53;9.10;99.90
64843;DHT22;51310;52.198;5.422;2023-02-18T09:28:20;9.10;99.90
64843;DHT22;51310;52.198;5.422;2023-02-18T09:30:46;9.20;99.90
64843;DHT22;51310;52.198;5.422;2023-02-18T09:33:11;9.20;99.90
64843;DHT22;51310;52.198;5.422;2023-02-18T09:35:41;9.20;99.90
64843;DHT22;51310;52.198;5.422;2023-02-18T09:38:13;9.20;99.90
64843;DHT22;51310;52.198;5.422;2023-02-18T09:40:47;9.20;99.90
64843;DHT22;51310;52.198;5.422;2023-02-18T09:43:44;9.30;99.90
64843;DHT22;51310;52.198;5.422;2023-02-18T09:46:18;9.30;99.90
64843;DHT22;51310;52.198;5.422;2023-02-18T09:48:47;9.40;99.90
64843;DHT22;51310;52.198;5.422;2023-02-18T09:51:15;9.40;99.90
64843;DHT22;51310;52.198;5.422;2023-02-18T09:53:43;9.40;99.90
64843;DHT22;51310;52.198;5.422;2023-02-18T09:56:12;9.40;99.90
64843;DHT22;51310;52.198;5.422;2023-02-18T09:58:43;9.50;99.90
64843;DHT22;51310;52.198;5.422;2023-02-18T10:01:36;9.50;99.90
64843;DHT22;51310;52.198;5.422;2023-02-18T10:04:22;9.50;99.90
64843;DHT22;51310;52.198;5.422;2023-02-18T10:06:55;9.60;99.90
64843;DHT22;51310;52.198;5.422;2023-02-18T10:09:29;9.70;99.90
64843;DHT22;51310;52.198;5.422;2023-02-18T10:12:12;9.70;99.90
64843;DHT22;51310;52.198;5.422;2023-02-18T10:14:42;9.70;99.90
64843;DHT22;51310;52.198;5.422;2023-02-18T10:17:14;9.80;99.90
64843;DHT22;51310;52.198;5.422;2023-02-18T10:19:44;9.90;99.90
64843;DHT22;51310;52.198;5.422;2023-02-18T10:22:13;10.00;99.90
64843;DHT22;51310;52.198;5.422;2023-02-18T10:24:52;10.00;99.90
64843;DHT22;51310;52.198;5.422;2023-02-18T10:27:29;10.00;99.90
64843;DHT22;51310;52.198;5.422;2023-02-18T10:30:22;10.00;99.90
64843;DHT22;51310;52.198;5.422;2023-02-18T10:32:59;10.00;99.90
64843;DHT22;51310;52.198;5.422;2023-02-18T10:35:47;10.00;99.90
64843;DHT22;51310;52.198;5.422;2023-02-18T10:38:40;10.00;99.90
64843;DHT22;51310;52.198;5.422;2023-02-18T10:41:24;10.10;99.90
64843;DHT22;51310;52.198;5.422;2023-02-18T10:49:59;10.30;99.90
64843;DHT22;51310;52.198;5.422;2023-02-18T10:52:43;10.40;99.90
64843;DHT22;51310;52.198;5.422;2023-02-18T10:55:15;10.50;99.90
64843;DHT22;51310;52.198;5.422;2023-02-18T10:57:48;10.60;99.90
64843;DHT22;51310;52.198;5.422;2023-02-18T11:00:24;10.60;99.90
64843;DHT22;51310;52.198;5.422;2023-02-18T11:03:21;10.70;99.90
64843;DHT22;51310;52.198;5.422;2023-02-18T11:05:54;10.70;99.90
64843;DHT22;51310;52.198;5.422;2023-02-18T11:08:28;10.80;99.90
64843;DHT22;51310;52.198;5.422;2023-02-18T11:11:20;10.90;99.90
64843;DHT22;51310;52.198;5.422;2023-02-18T11:13:54;10.90;99.90
64843;DHT22;51310;52.198;5.422;2023-02-18T11:16:23;10.90;99.90
64843;DHT22;51310;52.198;5.422;2023-02-18T11:19:03;10.90;99.90
64843;DHT22;51310;52.198;5.422;2023-02-18T11:21:37;10.90;99.90
64843;DHT22;51310;52.198;5.422;2023-02-18T11:24:15;10.90;99.90
64843;DHT22;51310;52.198;5.422;2023-02-18T11:26:41;10.90;99.90
64843;DHT22;51310;52.198;5.422;2023-02-18T11:29:19;10.90;99.90
64843;DHT22;51310;52.198;5.422;2023-02-18T11:31:49;10.90;99.90
64843;DHT22;51310;52.198;5.422;2023-02-18T11:34:21;11.00;99.90
64843;DHT22;51310;52.198;5.422;2023-02-18T11:36:51;10.90;99.90
64843;DHT22;51310;52.198;5.422;2023-02-18T11:39:26;10.80;99.90
64843;DHT22;51310;52.198;5.422;2023-02-18T11:41:56;10.60;99.90
64843;DHT22;51310;52.198;5.422;2023-02-18T11:49:40;10.30;99.90
64843;DHT22;51310;52.198;5.422;2023-02-18T11:52:19;10.30;99.90
64843;DHT22;51310;52.198;5.422;2023-02-18T11:55:22;10.30;99.90
64843;DHT22;51310;52.198;5.422;2023-02-18T11:58:00;10.40;99.90
64843;DHT22;51310;52.198;5.422;2023-02-18T12:00:38;10.40;99.90
64843;DHT22;51310;52.198;5.422;2023-02-18T12:03:32;10.40;99.90
64843;DHT22;51310;52.198;5.422;2023-02-18T12:06:04;10.50;99.90
64843;DHT22;51310;52.198;5.422;2023-02-18T12:08:51;10.50;99.90
64843;DHT22;51310;52.198;5.422;2023-02-18T12:11:49;10.60;99.90
64843;DHT22;51310;52.198;5.422;2023-02-18T12:14:20;10.60;99.90
64843;DHT22;51310;52.198;5.422;2023-02-18T12:34:11;11.00;99.90
64843;DHT22;51310;52.198;5.422;2023-02-18T12:37:39;11.10;99.90
64843;DHT22;51310;52.198;5.422;2023-02-18T12:40:19;11.10;99.90
64843;DHT22;51310;52.198;5.422;2023-02-18T12:43:23;11.30;99.90
64843;DHT22;51310;52.198;5.422;2023-02-18T12:46:18;11.30;99.90
64843;DHT22;51310;52.198;5.422;2023-02-18T12:52:01;11.30;99.90
64843;DHT22;51310;52.198;5.422;2023-02-18T12:54:49;11.20;99.90
64843;DHT22;51310;52.198;5.422;2023-02-18T12:57:33;11.30;99.90
64843;DHT22;51310;52.198;5.422;2023-02-18T13:03:38;11.50;99.90
64843;DHT22;51310;52.198;5.422;2023-02-18T13:06:32;11.60;99.90
64843;DHT22;51310;52.198;5.422;2023-02-18T13:12:27;11.70;99.90
64843;DHT22;51310;52.198;5.422;2023-02-18T13:15:04;11.70;99.90
64843;DHT22;51310;52.198;5.422;2023-02-18T13:17:42;11.70;99.90
64843;DHT22;51310;52.198;5.422;2023-02-18T13:20:22;11.70;99.90
64843;DHT22;51310;52.198;5.422;2023-02-18T13:22:54;11.70;99.90
64843;DHT22;51310;52.198;5.422;2023-02-18T13:25:21;11.50;99.90
64843;DHT22;51310;52.198;5.422;2023-02-18T13:30:47;11.50;99.90
64843;DHT22;51310;52.198;5.422;2023-02-18T13:39:17;11.40;99.90
64843;DHT22;51310;52.198;5.422;2023-02-18T13:41:47;11.40;99.90
64843;DHT22;51310;52.198;5.422;2023-02-18T13:46:49;11.50;99.90
64843;DHT22;51310;52.198;5.422;2023-02-18T13:49:30;11.50;99.90
64843;DHT22;51310;52.198;5.422;2023-02-18T13:51:59;11.50;99.90
64843;DHT22;51310;52.198;5.422;2023-02-18T13:57:17;11.70;99.90
64843;DHT22;51310;52.198;5.422;2023-02-18T14:00:02;11.70;99.90
64843;DHT22;51310;52.198;5.422;2023-02-18T14:02:58;11.70;99.90
64843;DHT22;51310;52.198;5.422;2023-02-18T14:05:38;11.70;99.90
64843;DHT22;51310;52.198;5.422;2023-02-18T14:08:14;11.80;99.90
64843;DHT22;51310;52.198;5.422;2023-02-18T14:14:13;11.90;99.90
64843;DHT22;51310;52.198;5.422;2023-02-18T14:19:42;11.90;99.90
64843;DHT22;51310;52.198;5.422;2023-02-18T14:22:50;11.90;99.90
64843;DHT22;51310;52.198;5.422;2023-02-18T14:27:46;11.90;99.90
64843;DHT22;51310;52.198;5.422;2023-02-18T14:32:49;11.90;99.90
64843;DHT22;51310;52.198;5.422;2023-02-18T14:37:57;11.90;99.90
64843;DHT22;51310;52.198;5.422;2023-02-18T14:46:26;11.90;99.90
64843;DHT22;51310;52.198;5.422;2023-02-18T14:49:13;11.90;99.90
64843;DHT22;51310;52.198;5.422;2023-02-18T14:52:04;11.90;99.90
64843;DHT22;51310;52.198;5.422;2023-02-18T14:54:36;11.90;99.90
64843;DHT22;51310;52.198;5.422;2023-02-18T14:57:08;11.80;99.90
64843;DHT22;51310;52.198;5.422;2023-02-18T14:59:43;11.70;99.90
64843;DHT22;51310;52.198;5.422;2023-02-18T15:02:21;11.70;99.90
64843;DHT22;51310;52.198;5.422;2023-02-18T15:04:52;11.70;99.90
64843;DHT22;51310;52.198;5.422;2023-02-18T15:07:21;11.70;99.90
64843;DHT22;51310;52.198;5.422;2023-02-18T15:09:49;11.70;99.90
64843;DHT22;51310;52.198;5.422;2023-02-18T15:12:20;11.70;99.90
64843;DHT22;51310;52.198;5.422;2023-02-18T15:14:50;11.70;99.90
64843;DHT22;51310;52.198;5.422;2023-02-18T15:17:24;11.70;99.90
64843;DHT22;51310;52.198;5.422;2023-02-18T15:19:57;11.60;99.90
64843;DHT22;51310;52.198;5.422;2023-02-18T15:22:34;11.50;99.90
64843;DHT22;51310;52.198;5.422;2023-02-18T15:25:00;11.50;99.90
64843;DHT22;51310;52.198;5.422;2023-02-18T15:27:29;11.50;99.90
64843;DHT22;51310;52.198;5.422;2023-02-18T15:32:45;11.50;99.90
64843;DHT22;51310;52.198;5.422;2023-02-18T15:35:17;11.50;99.90
64843;DHT22;51310;52.198;5.422;2023-02-18T15:37:46;11.50;99.90
64843;DHT22;51310;52.198;5.422;2023-02-18T15:40:17;11.50;99.90
64843;DHT22;51310;52.198;5.422;2023-02-18T15:42:49;11.50;99.90
64843;DHT22;51310;52.198;5.422;2023-02-18T15:48:06;11.40;99.90
64843;DHT22;51310;52.198;5.422;2023-02-18T15:50:35;11.40;99.90
64843;DHT22;51310;52.198;5.422;2023-02-18T15:53:15;11.40;99.90
64843;DHT22;51310;52.198;5.422;2023-02-18T15:55:46;11.30;99.90
64843;DHT22;51310;52.198;5.422;2023-02-18T15:58:30;11.30;99.90
64843;DHT22;51310;52.198;5.422;2023-02-18T16:01:00;11.30;99.90
64843;DHT22;51310;52.198;5.422;2023-02-18T16:03:37;11.30;99.90
64843;DHT22;51310;52.198;5.422;2023-02-18T16:06:30;11.30;99.90
64843;DHT22;51310;52.198;5.422;2023-02-18T16:09:15;11.30;99.90
64843;DHT22;51310;52.198;5.422;2023-02-18T16:11:52;11.30;99.90
64843;DHT22;51310;52.198;5.422;2023-02-18T16:14:44;11.20;99.90
64843;DHT22;51310;52.198;5.422;2023-02-18T16:19:57;11.10;99.90
64843;DHT22;51310;52.198;5.422;2023-02-18T16:25:00;11.10;99.90
64843;DHT22;51310;52.198;5.422;2023-02-18T16:27:34;11.10;99.90
64843;DHT22;51310;52.198;5.422;2023-02-18T16:30:14;11.00;99.90
64843;DHT22;51310;52.198;5.422;2023-02-18T16:32:49;11.00;99.90
64843;DHT22;51310;52.198;5.422;2023-02-18T16:35:16;11.00;99.90
64843;DHT22;51310;52.198;5.422;2023-02-18T16:37:43;11.00;99.90
64843;DHT22;51310;52.198;5.422;2023-02-18T16:40:30;11.00;99.90
64843;DHT22;51310;52.198;5.422;2023-02-18T16:42:59;10.90;99.90
64843;DHT22;51310;52.198;5.422;2023-02-18T16:45:34;10.90;99.90
64843;DHT22;51310;52.198;5.422;2023-02-18T16:48:02;10.90;99.90
64843;DHT22;51310;52.198;5.422;2023-02-18T16:50:29;10.80;99.90
64843;DHT22;51310;52.198;5.422;2023-02-18T16:52:58;10.90;99.90
64843;DHT22;51310;52.198;5.422;2023-02-18T16:55:27;10.90;99.90
64843;DHT22;51310;52.198;5.422;2023-02-18T16:57:55;10.80;99.90
64843;DHT22;51310;52.198;5.422;2023-02-18T17:00:22;10.80;99.90
64843;DHT22;51310;52.198;5.422;2023-02-18T17:02:49;10.70;99.90
64843;DHT22;51310;52.198;5.422;2023-02-18T17:05:30;10.70;99.90
64843;DHT22;51310;52.198;5.422;2023-02-18T17:10:49;10.80;99.90
64843;DHT22;51310;52.198;5.422;2023-02-18T17:13:25;10.70;99.90
64843;DHT22;51310;52.198;5.422;2023-02-18T17:15:55;10.70;99.90
64843;DHT22;51310;52.198;5.422;2023-02-18T17:18:22;10.60;99.90
64843;DHT22;51310;52.198;5.422;2023-02-18T17:20:49;10.60;99.90
64843;DHT22;51310;52.198;5.422;2023-02-18T17:23:19;10.60;99.90
64843;DHT22;51310;52.198;5.422;2023-02-18T17:25:47;10.60;99.90
64843;DHT22;51310;52.198;5.422;2023-02-18T17:28:14;10.60;99.90
64843;DHT22;51310;52.198;5.422;2023-02-18T17:30:45;10.60;99.90
64843;DHT22;51310;52.198;5.422;2023-02-18T17:33:16;10.60;99.90
64843;DHT22;51310;52.198;5.422;2023-02-18T17:35:43;10.50;99.90
64843;DHT22;51310;52.198;5.422;2023-02-18T17:38:14;10.50;99.90
64843;DHT22;51310;52.198;5.422;2023-02-18T17:40:41;10.50;99.90
64843;DHT22;51310;52.198;5.422;2023-02-18T17:43:15;10.50;99.90
64843;DHT22;51310;52.198;5.422;2023-02-18T17:45:49;10.50;99.90
64843;DHT22;51310;52.198;5.422;2023-02-18T17:48:17;10.40;99.90
64843;DHT22;51310;52.198;5.422;2023-02-18T17:50:43;10.40;99.90
64843;DHT22;51310;52.198;5.422;2023-02-18T17:53:11;10.40;99.90
64843;DHT22;51310;52.198;5.422;2023-02-18T17:55:39;10.40;99.90
64843;DHT22;51310;52.198;5.422;2023-02-18T17:58:07;10.30;99.90
64843;DHT22;51310;52.198;5.422;2023-02-18T18:00:35;10.30;99.90
64843;DHT22;51310;52.198;5.422;2023-02-18T18:03:04;10.20;99.90
64843;DHT22;51310;52.198;5.422;2023-02-18T18:05:32;10.20;99.90
64843;DHT22;51310;52.198;5.422;2023-02-18T18:08:01;10.10;99.90
64843;DHT22;51310;52.198;5.422;2023-02-18T18:10:29;10.00;99.90
64843;DHT22;51310;52.198;5.422;2023-02-18T18:12:59;10.00;99.90